Time;durP1;ratioP1;P1;durP2;ratioP2;P2;SDS_P1;SDS_P2;PMS_P1;PMS_P2;Temp;Humidity;BMP_temperature;BMP_pressure;BME280_temperature;BME280_humidity;BME280_pressure;Samples;Min_cycle;Max_cycle;Signal;HPM_P1;HPM_P2
2023/02/03 00:01:21;;;;;;;3.80;2.47;;;;;;;;;;5003867;28;20488;-64
2023/02/03 00:03:47;;;;;;;3.58;2.20;;;;;;;;;;4994801;28;20108;-64
2023/02/03 00:06:12;;;;;;;6.10;2.17;;;;;;;;;;5002646;28;20106;-64
2023/02/03 00:08:38;;;;;;;3.72;2.15;;;;;;;;;;4995048;28;20021;-64
2023/02/03 00:11:04;;;;;;;6.60;2.55;;;;;;;;;;4994075;28;20093;-65
2023/02/03 00:13:29;;;;;;;3.15;2.38;;;;;;;;;;4992658;28;20476;-64
2023/02/03 00:15:55;;;;;;;3.50;2.50;;;;;;;;;;4997370;28;20080;-64
2023/02/03 00:18:20;;;;;;;3.72;1.80;;;;;;;;;;4999730;28;20479;-64
2023/02/03 00:20:46;;;;;;;4.22;2.17;;;;;;;;;;4992633;28;20096;-65
2023/02/03 00:23:11;;;;;;;3.13;2.08;;;;;;;;;;4994087;28;20395;-64
2023/02/03 00:25:37;;;;;;;2.50;1.88;;;;;;;;;;4988812;28;20113;-64
2023/02/03 00:28:04;;;;;;;2.35;1.75;;;;;;;;;;5000373;28;20394;-65
2023/02/03 00:30:29;;;;;;;3.25;1.98;;;;;;;;;;4997472;28;20048;-64
2023/02/03 00:32:55;;;;;;;3.88;2.10;;;;;;;;;;4994431;28;20491;-65
2023/02/03 00:35:20;;;;;;;4.45;1.95;;;;;;;;;;4990027;28;20502;-64
2023/02/03 00:37:55;;;;;;;3.83;2.20;;;;;;;;;;4998246;28;20053;-65
2023/02/03 00:40:23;;;;;;;4.93;2.15;;;;;;;;;;4997200;28;20119;-64
2023/02/03 00:42:49;;;;;;;2.95;2.53;;;;;;;;;;5000077;28;20392;-64
2023/02/03 00:45:15;;;;;;;2.00;1.70;;;;;;;;;;4995576;28;20023;-64
2023/02/03 00:47:41;;;;;;;3.75;2.70;;;;;;;;;;4987882;28;20022;-64
2023/02/03 00:50:07;;;;;;;3.40;2.28;;;;;;;;;;4993171;28;20383;-65
2023/02/03 00:52:32;;;;;;;4.40;2.08;;;;;;;;;;4995046;28;20083;-64
2023/02/03 00:54:58;;;;;;;2.50;2.30;;;;;;;;;;4989654;28;20022;-65
2023/02/03 00:57:23;;;;;;;3.30;2.20;;;;;;;;;;4994482;28;20045;-64
2023/02/03 00:59:48;;;;;;;3.17;2.20;;;;;;;;;;4991804;28;20484;-64
2023/02/03 01:02:15;;;;;;;2.70;2.35;;;;;;;;;;4994049;28;20109;-64
2023/02/03 01:04:42;;;;;;;6.88;2.97;;;;;;;;;;4992444;28;20034;-65
2023/02/03 01:07:08;;;;;;;3.88;1.98;;;;;;;;;;4990765;28;20102;-64
2023/02/03 01:09:35;;;;;;;3.22;2.40;;;;;;;;;;4991825;28;20120;-64
2023/02/03 01:12:00;;;;;;;3.85;2.03;;;;;;;;;;4992799;28;20094;-64
2023/02/03 01:14:25;;;;;;;2.88;2.13;;;;;;;;;;4989603;28;20038;-64
2023/02/03 01:16:51;;;;;;;3.30;2.30;;;;;;;;;;4991740;28;20022;-64
2023/02/03 01:19:16;;;;;;;5.65;2.20;;;;;;;;;;4996328;28;20488;-64
2023/02/03 01:21:42;;;;;;;3.80;1.90;;;;;;;;;;4996252;28;20030;-64
2023/02/03 01:24:08;;;;;;;3.38;2.40;;;;;;;;;;4995758;28;20045;-64
2023/02/03 01:26:34;;;;;;;7.53;2.38;;;;;;;;;;4997316;28;20221;-63
2023/02/03 01:29:00;;;;;;;2.70;2.15;;;;;;;;;;5000284;28;20479;-63
2023/02/03 01:31:30;;;;;;;2.17;1.73;;;;;;;;;;4999572;28;20022;-63
2023/02/03 01:33:56;;;;;;;2.17;1.88;;;;;;;;;;4995407;28;20022;-63
2023/02/03 01:36:24;;;;;;;2.35;1.70;;;;;;;;;;4993043;28;20022;-63
2023/02/03 01:38:49;;;;;;;4.57;2.30;;;;;;;;;;4980924;28;20428;-63
2023/02/03 01:41:25;;;;;;;3.28;2.08;;;;;;;;;;4988880;28;20030;-63
2023/02/03 01:43:55;;;;;;;1.90;1.70;;;;;;;;;;4986463;28;20109;-63
2023/02/03 01:46:26;;;;;;;3.17;1.50;;;;;;;;;;4986998;28;20030;-64
2023/02/03 01:48:58;;;;;;;2.10;1.70;;;;;;;;;;4989639;28;20100;-64
2023/02/03 01:51:23;;;;;;;3.20;1.63;;;;;;;;;;5004545;28;20023;-63
2023/02/03 01:53:51;;;;;;;2.00;1.80;;;;;;;;;;4986517;28;20022;-63
2023/02/03 01:56:16;;;;;;;1.92;1.65;;;;;;;;;;4995871;28;20029;-63
2023/02/03 01:58:44;;;;;;;2.35;1.98;;;;;;;;;;4996051;28;20034;-62
2023/02/03 02:01:10;;;;;;;3.20;2.30;;;;;;;;;;4993465;28;20026;-64
2023/02/03 02:03:38;;;;;;;4.03;2.10;;;;;;;;;;4995154;28;20081;-64
2023/02/03 02:06:14;;;;;;;2.33;1.75;;;;;;;;;;4997685;28;20097;-64
2023/02/03 02:08:41;;;;;;;3.92;1.60;;;;;;;;;;5008143;28;20025;-64
2023/02/03 02:11:07;;;;;;;2.38;1.90;;;;;;;;;;4999785;28;20030;-64
2023/02/03 02:13:34;;;;;;;4.32;1.90;;;;;;;;;;4998750;28;20026;-64
2023/02/03 02:16:10;;;;;;;3.58;2.35;;;;;;;;;;4998047;28;20033;-64
2023/02/03 02:18:45;;;;;;;1.95;1.58;;;;;;;;;;5002346;28;20049;-64
2023/02/03 02:21:40;;;;;;;2.40;1.85;;;;;;;;;;4993964;28;20417;-64
2023/02/03 02:24:43;;;;;;;3.35;2.05;;;;;;;;;;4992421;28;20033;-64
2023/02/03 02:27:24;;;;;;;3.33;1.77;;;;;;;;;;4995634;28;20022;-64
2023/02/03 02:29:59;;;;;;;3.17;1.63;;;;;;;;;;4993408;28;20033;-64
2023/02/03 02:32:30;;;;;;;3.97;1.70;;;;;;;;;;5004790;28;20033;-64
2023/02/03 02:35:10;;;;;;;4.07;2.10;;;;;;;;;;4995304;28;20029;-64
2023/02/03 02:37:46;;;;;;;6.57;1.92;;;;;;;;;;5000673;28;20026;-64
2023/02/03 02:40:33;;;;;;;2.13;1.73;;;;;;;;;;4994991;28;20058;-64
2023/02/03 02:43:07;;;;;;;3.05;1.50;;;;;;;;;;4984865;28;20023;-64
2023/02/03 02:45:55;;;;;;;4.00;1.70;;;;;;;;;;4997770;28;20038;-64
2023/02/03 02:48:39;;;;;;;3.00;1.65;;;;;;;;;;4992634;28;20094;-64
2023/02/03 02:51:08;;;;;;;3.03;1.50;;;;;;;;;;4985766;28;20018;-64
2023/02/03 02:53:41;;;;;;;3.53;1.70;;;;;;;;;;4989610;28;20087;-64
2023/02/03 02:56:09;;;;;;;2.60;1.73;;;;;;;;;;4996081;28;20022;-64
2023/02/03 02:58:38;;;;;;;1.90;1.60;;;;;;;;;;4997033;28;20476;-64
2023/02/03 03:01:06;;;;;;;3.65;1.65;;;;;;;;;;4999977;28;20046;-64
2023/02/03 03:03:32;;;;;;;2.63;1.65;;;;;;;;;;4996196;28;20029;-64
2023/02/03 03:06:08;;;;;;;2.63;1.60;;;;;;;;;;4995335;28;20018;-64
2023/02/03 03:08:52;;;;;;;3.33;1.33;;;;;;;;;;4993264;28;20038;-64
2023/02/03 03:11:18;;;;;;;3.30;1.48;;;;;;;;;;4991147;28;20033;-64
2023/02/03 03:13:48;;;;;;;1.50;1.40;;;;;;;;;;4995581;28;20396;-64
2023/02/03 03:16:16;;;;;;;1.77;1.40;;;;;;;;;;4995446;28;20484;-64
2023/02/03 03:18:47;;;;;;;5.22;1.40;;;;;;;;;;4994655;28;20034;-64
2023/02/03 03:21:19;;;;;;;2.53;1.55;;;;;;;;;;5002965;28;20045;-64
2023/02/03 03:23:48;;;;;;;1.48;1.38;;;;;;;;;;4998982;28;20045;-64
2023/02/03 03:26:20;;;;;;;2.15;1.33;;;;;;;;;;4990958;28;20501;-64
2023/02/03 03:28:50;;;;;;;1.52;1.33;;;;;;;;;;5001736;28;20030;-64
2023/02/03 03:31:17;;;;;;;;;;;;;;;;;;4998649;28;20056;-64
2023/02/03 03:33:44;;;;;;;2.30;1.45;;;;;;;;;;4993463;28;19916;-64
2023/02/03 03:36:22;;;;;;;2.75;1.50;;;;;;;;;;4990773;28;20081;-64
2023/02/03 03:39:12;;;;;;;1.35;1.17;;;;;;;;;;4986673;28;20084;-64
2023/02/03 03:41:59;;;;;;;1.40;1.02;;;;;;;;;;4990751;28;20042;-64
2023/02/03 03:44:31;;;;;;;2.90;1.25;;;;;;;;;;4986060;28;20499;-64
2023/02/03 03:47:13;;;;;;;1.35;1.25;;;;;;;;;;4987260;28;20057;-64
2023/02/03 03:49:42;;;;;;;1.42;1.25;;;;;;;;;;4986097;28;20030;-64
2023/02/03 03:52:11;;;;;;;2.27;1.53;;;;;;;;;;4985544;28;20023;-64
2023/02/03 03:54:37;;;;;;;1.77;1.42;;;;;;;;;;4995423;28;20053;-64
2023/02/03 03:57:14;;;;;;;2.05;1.40;;;;;;;;;;4994166;28;20023;-64
2023/02/03 03:59:42;;;;;;;1.40;1.30;;;;;;;;;;4994456;28;20387;-64
2023/02/03 04:02:08;;;;;;;2.13;1.40;;;;;;;;;;4994425;28;20026;-64
2023/02/03 04:04:36;;;;;;;1.40;1.30;;;;;;;;;;5001760;28;20061;-64
2023/02/03 04:07:01;;;;;;;1.48;1.33;;;;;;;;;;4999829;28;20029;-64
2023/02/03 04:09:27;;;;;;;1.45;1.27;;;;;;;;;;4992288;28;20407;-64
2023/02/03 04:12:01;;;;;;;2.92;1.38;;;;;;;;;;4997923;28;20071;-64
2023/02/03 04:14:31;;;;;;;2.17;1.45;;;;;;;;;;4998293;28;20408;-64
2023/02/03 04:16:57;;;;;;;1.67;1.35;;;;;;;;;;4993474;28;20381;-64
2023/02/03 04:19:22;;;;;;;1.75;1.25;;;;;;;;;;4996523;28;20077;-64
2023/02/03 04:21:48;;;;;;;2.28;1.20;;;;;;;;;;4993368;28;20096;-64
2023/02/03 04:24:13;;;;;;;1.73;1.38;;;;;;;;;;4997438;28;20084;-64
2023/02/03 04:26:39;;;;;;;2.90;1.35;;;;;;;;;;4988002;28;20034;-64
2023/02/03 04:29:05;;;;;;;3.55;1.70;;;;;;;;;;4985523;28;20488;-64
2023/02/03 04:31:30;;;;;;;1.48;1.30;;;;;;;;;;4988737;28;20019;-64
2023/02/03 04:33:56;;;;;;;3.45;1.40;;;;;;;;;;4997829;28;20028;-64
2023/02/03 04:36:21;;;;;;;1.40;1.25;;;;;;;;;;4985054;28;20030;-64
2023/02/03 04:38:50;;;;;;;1.42;1.30;;;;;;;;;;4995993;28;20079;-64
2023/02/03 04:41:15;;;;;;;1.77;1.60;;;;;;;;;;4986268;28;20030;-64
2023/02/03 04:43:41;;;;;;;2.53;1.27;;;;;;;;;;4985826;28;20030;-64
2023/02/03 04:46:06;;;;;;;1.50;1.40;;;;;;;;;;4985612;28;20026;-64
2023/02/03 04:48:31;;;;;;;2.55;1.38;;;;;;;;;;4985685;28;20048;-64
2023/02/03 04:51:05;;;;;;;2.00;1.60;;;;;;;;;;4988451;28;20081;-64
2023/02/03 04:53:31;;;;;;;2.80;1.25;;;;;;;;;;4985060;28;20553;-64
2023/02/03 04:55:56;;;;;;;1.92;1.60;;;;;;;;;;4993079;28;20034;-64
2023/02/03 04:58:22;;;;;;;1.65;1.50;;;;;;;;;;4993367;28;20510;-64
2023/02/03 05:00:47;;;;;;;1.65;1.50;;;;;;;;;;5000121;28;20077;-64
2023/02/03 05:03:12;;;;;;;4.10;1.73;;;;;;;;;;5000068;28;20033;-64
2023/02/03 05:05:38;;;;;;;4.15;1.50;;;;;;;;;;5000311;28;20029;-64
2023/02/03 05:08:03;;;;;;;2.42;1.70;;;;;;;;;;5005608;28;20053;-64
2023/02/03 05:10:29;;;;;;;1.58;1.48;;;;;;;;;;4990800;28;20519;-64
2023/02/03 05:12:54;;;;;;;1.40;1.20;;;;;;;;;;4999901;28;20123;-64
2023/02/03 05:15:20;;;;;;;1.50;1.40;;;;;;;;;;4996324;28;20056;-64
2023/02/03 05:17:45;;;;;;;1.50;1.40;;;;;;;;;;4992317;28;20033;-64
2023/02/03 05:20:11;;;;;;;2.15;1.30;;;;;;;;;;5010049;28;20073;-64
2023/02/03 05:22:36;;;;;;;2.75;1.50;;;;;;;;;;4990920;28;20073;-64
2023/02/03 05:25:03;;;;;;;2.13;1.60;;;;;;;;;;4996103;28;20113;-64
2023/02/03 05:27:28;;;;;;;2.88;1.40;;;;;;;;;;4995614;28;20029;-64
2023/02/03 05:29:54;;;;;;;2.67;1.73;;;;;;;;;;5000835;28;20018;-64
2023/02/03 05:32:19;;;;;;;1.88;1.67;;;;;;;;;;4991965;28;20018;-64
2023/02/03 05:34:45;;;;;;;3.05;1.98;;;;;;;;;;4994501;28;20026;-64
2023/02/03 05:37:10;;;;;;;4.22;1.48;;;;;;;;;;4984418;28;20103;-64
2023/02/03 05:39:35;;;;;;;2.15;1.73;;;;;;;;;;4985709;28;20084;-64
2023/02/03 05:42:02;;;;;;;2.88;2.03;;;;;;;;;;4999366;28;20030;-64
2023/02/03 05:44:28;;;;;;;5.18;1.90;;;;;;;;;;4991225;28;20062;-64
2023/02/03 05:46:55;;;;;;;5.00;2.20;;;;;;;;;;4985766;28;20435;-64
2023/02/03 05:49:22;;;;;;;5.60;3.70;;;;;;;;;;4992293;28;20404;-64
2023/02/03 05:51:47;;;;;;;3.92;1.88;;;;;;;;;;4991515;28;20030;-64
2023/02/03 05:54:13;;;;;;;2.92;2.17;;;;;;;;;;4991825;28;20101;-64
2023/02/03 05:56:38;;;;;;;2.38;1.90;;;;;;;;;;5000399;28;20060;-64
2023/02/03 05:59:04;;;;;;;3.22;1.85;;;;;;;;;;4997372;28;20030;-64
2023/02/03 06:01:30;;;;;;;3.95;2.20;;;;;;;;;;4990793;28;20076;-64
2023/02/03 06:03:56;;;;;;;3.95;1.92;;;;;;;;;;4991295;28;20061;-63
2023/02/03 06:06:22;;;;;;;2.40;2.20;;;;;;;;;;4991966;28;20415;-64
2023/02/03 06:08:47;;;;;;;3.45;1.88;;;;;;;;;;4989751;28;20117;-63
2023/02/03 06:11:13;;;;;;;5.05;2.53;;;;;;;;;;4994390;28;20113;-63
2023/02/03 06:13:38;;;;;;;3.85;2.20;;;;;;;;;;4994602;28;20031;-64
2023/02/03 06:16:04;;;;;;;2.38;1.80;;;;;;;;;;4998630;28;20513;-63
2023/02/03 06:18:30;;;;;;;2.55;1.88;;;;;;;;;;4991975;28;20029;-63
2023/02/03 06:20:55;;;;;;;2.00;1.77;;;;;;;;;;5002299;28;20038;-64
2023/02/03 06:23:21;;;;;;;3.80;1.73;;;;;;;;;;4994527;28;20114;-64
2023/02/03 06:25:48;;;;;;;2.03;1.75;;;;;;;;;;4995502;28;20109;-64
2023/02/03 06:28:14;;;;;;;4.10;2.28;;;;;;;;;;4994427;28;20034;-65
2023/02/03 06:30:39;;;;;;;4.72;2.35;;;;;;;;;;4996425;28;20030;-63
2023/02/03 06:33:05;;;;;;;6.57;2.67;;;;;;;;;;4991666;28;20026;-64
2023/02/03 06:35:30;;;;;;;1.80;1.63;;;;;;;;;;5005666;28;20029;-65
2023/02/03 06:37:55;;;;;;;3.88;2.10;;;;;;;;;;4997269;28;20033;-58
2023/02/03 06:40:21;;;;;;;2.10;1.90;;;;;;;;;;4994971;28;20022;-57
2023/02/03 06:42:47;;;;;;;3.83;1.98;;;;;;;;;;4985027;28;20034;-58
2023/02/03 06:45:13;;;;;;;2.58;1.90;;;;;;;;;;4982659;28;20053;-58
2023/02/03 06:47:40;;;;;;;2.75;1.90;;;;;;;;;;4997693;28;20025;-59
2023/02/03 06:50:06;;;;;;;4.07;2.13;;;;;;;;;;5002012;28;20068;-59
2023/02/03 06:52:32;;;;;;;4.30;2.00;;;;;;;;;;4996414;28;20069;-59
2023/02/03 06:54:57;;;;;;;5.18;2.05;;;;;;;;;;4991327;28;20037;-58
2023/02/03 06:57:22;;;;;;;3.35;1.98;;;;;;;;;;5002159;28;20033;-58
2023/02/03 07:02:23;;;;;;;2.67;2.22;;;;;;;;;;4978515;23;20044;-81
2023/02/03 07:04:49;;;;;;;2.92;2.10;;;;;;;;;;4958041;28;20062;-79
2023/02/03 07:07:14;;;;;;;4.47;2.17;;;;;;;;;;4954230;28;20046;-76
2023/02/03 07:09:40;;;;;;;3.55;1.75;;;;;;;;;;4953424;28;20114;-77
2023/02/03 07:12:06;;;;;;;4.95;1.90;;;;;;;;;;4956248;29;20036;-80
2023/02/03 07:14:34;;;;;;;4.50;2.05;;;;;;;;;;4956837;29;20035;-78
2023/02/03 07:17:03;;;;;;;4.38;2.15;;;;;;;;;;4955283;29;20039;-78
2023/02/03 07:19:28;;;;;;;2.90;2.00;;;;;;;;;;4953144;28;20082;-79
2023/02/03 07:21:54;;;;;;;4.28;2.00;;;;;;;;;;4955068;29;20098;-79
2023/02/03 07:24:19;;;;;;;2.20;2.00;;;;;;;;;;4954394;28;20035;-77
2023/02/03 07:26:45;;;;;;;3.08;2.20;;;;;;;;;;4956390;29;20031;-78
2023/02/03 07:29:10;;;;;;;4.93;2.33;;;;;;;;;;4954859;28;20058;-78
2023/02/03 07:31:38;;;;;;;3.60;2.20;;;;;;;;;;4955089;29;20023;-77
2023/02/03 07:34:04;;;;;;;2.80;2.10;;;;;;;;;;4956493;29;20033;-78
2023/02/03 07:36:29;;;;;;;3.83;1.90;;;;;;;;;;4956998;28;20126;-79
2023/02/03 07:38:55;;;;;;;3.40;2.72;;;;;;;;;;4942836;29;20050;-76
2023/02/03 07:41:26;;;;;;;3.80;2.30;;;;;;;;;;4962755;28;20047;-77
2023/02/03 07:43:51;;;;;;;2.97;2.10;;;;;;;;;;4946266;28;20031;-79
2023/02/03 07:46:17;;;;;;;3.03;2.15;;;;;;;;;;4939791;29;20094;-78
2023/02/03 07:48:42;;;;;;;2.42;2.03;;;;;;;;;;4959437;28;20090;-79
2023/02/03 07:51:10;;;;;;;3.15;1.95;;;;;;;;;;4956639;29;20019;-77
2023/02/03 07:53:37;;;;;;;4.10;2.00;;;;;;;;;;4956381;28;20034;-79
2023/02/03 07:56:06;;;;;;;2.70;2.08;;;;;;;;;;4941223;29;20027;-78
2023/02/03 07:58:32;;;;;;;3.58;1.95;;;;;;;;;;4957831;29;20034;-77
2023/02/03 08:00:57;;;;;;;2.92;2.30;;;;;;;;;;4955351;28;20035;-76
2023/02/03 08:03:23;;;;;;;2.65;1.90;;;;;;;;;;4950813;29;20035;-78
2023/02/03 08:05:49;;;;;;;3.63;2.15;;;;;;;;;;4939158;29;20134;-79
2023/02/03 08:08:14;;;;;;;5.80;3.38;;;;;;;;;;4959302;28;20490;-79
2023/02/03 08:10:40;;;;;;;3.47;2.63;;;;;;;;;;4963164;28;20099;-78
2023/02/03 08:13:05;;;;;;;2.60;2.40;;;;;;;;;;4967519;28;20059;-77
2023/02/03 08:15:31;;;;;;;6.97;2.60;;;;;;;;;;4942634;29;20042;-77
2023/02/03 08:17:56;;;;;;;4.30;2.80;;;;;;;;;;4940023;29;20389;-76
2023/02/03 08:20:22;;;;;;;5.00;1.98;;;;;;;;;;4955415;29;20541;-80
2023/02/03 08:22:47;;;;;;;2.45;2.17;;;;;;;;;;4943999;28;20581;-77
2023/02/03 08:25:12;;;;;;;3.03;2.00;;;;;;;;;;4942432;29;20393;-78
2023/02/03 08:27:39;;;;;;;2.80;1.73;;;;;;;;;;4940988;29;20027;-79
2023/02/03 08:30:05;;;;;;;4.00;1.90;;;;;;;;;;4942869;29;20058;-76
2023/02/03 08:32:32;;;;;;;3.63;2.45;;;;;;;;;;4956645;28;20398;-77
2023/02/03 08:34:57;;;;;;;7.93;2.60;;;;;;;;;;4940582;29;20461;-78
2023/02/03 08:37:23;;;;;;;2.80;2.17;;;;;;;;;;4939599;28;20032;-79
2023/02/03 08:39:49;;;;;;;7.85;3.13;;;;;;;;;;4939378;29;20031;-78
2023/02/03 08:42:15;;;;;;;6.35;3.47;;;;;;;;;;4955759;28;20035;-79
2023/02/03 08:44:42;;;;;;;2.72;2.47;;;;;;;;;;4954992;29;20034;-78
2023/02/03 08:47:09;;;;;;;4.15;2.60;;;;;;;;;;4958414;28;20101;-77
2023/02/03 08:49:34;;;;;;;3.20;2.78;;;;;;;;;;4947290;28;20027;-78
2023/02/03 08:52:00;;;;;;;4.85;2.80;;;;;;;;;;4964584;28;20099;-77
2023/02/03 08:54:28;;;;;;;4.20;3.13;;;;;;;;;;4956369;28;20024;-78
2023/02/03 08:56:54;;;;;;;2.95;2.38;;;;;;;;;;4934933;28;20035;-77
2023/02/03 08:59:19;;;;;;;4.07;2.63;;;;;;;;;;4956156;29;20161;-77
2023/02/03 09:01:47;;;;;;;4.00;2.50;;;;;;;;;;4946114;29;20035;-77
2023/02/03 09:04:23;;;;;;;2.55;2.30;;;;;;;;;;4966840;29;20190;-78
2023/02/03 09:06:50;;;;;;;3.22;2.47;;;;;;;;;;4958650;28;20027;-78
2023/02/03 09:09:18;;;;;;;3.72;2.75;;;;;;;;;;4959672;28;20098;-79
2023/02/03 09:11:44;;;;;;;2.67;2.38;;;;;;;;;;4944509;28;20026;-79
2023/02/03 09:14:09;;;;;;;4.78;2.40;;;;;;;;;;4943824;29;20058;-77
2023/02/03 09:16:35;;;;;;;5.10;2.88;;;;;;;;;;4958793;29;20031;-77
2023/02/03 09:19:01;;;;;;;4.15;2.50;;;;;;;;;;4939496;29;20091;-77
2023/02/03 09:21:26;;;;;;;3.78;2.40;;;;;;;;;;4964185;28;20027;-79
2023/02/03 09:23:54;;;;;;;3.08;2.28;;;;;;;;;;4960142;28;20026;-79
2023/02/03 09:26:20;;;;;;;4.95;2.03;;;;;;;;;;4942797;28;20031;-80
2023/02/03 09:28:47;;;;;;;3.70;2.50;;;;;;;;;;4954859;28;20034;-79
2023/02/03 09:31:18;;;;;;;8.13;3.70;;;;;;;;;;4940542;29;20023;-79
2023/02/03 09:33:44;;;;;;;5.20;2.88;;;;;;;;;;4938014;28;20074;-77
2023/02/03 09:36:10;;;;;;;4.28;2.50;;;;;;;;;;4951907;28;20478;-77
2023/02/03 09:38:38;;;;;;;2.88;2.40;;;;;;;;;;4950537;28;20375;-79
2023/02/03 09:41:11;;;;;;;2.78;2.15;;;;;;;;;;4951659;29;20054;-78
2023/02/03 09:43:48;;;;;;;2.80;2.50;;;;;;;;;;4939808;29;20031;-76
2023/02/03 09:46:25;;;;;;;4.65;2.90;;;;;;;;;;4941899;29;20036;-78
2023/02/03 09:49:03;;;;;;;4.15;2.30;;;;;;;;;;4938780;29;20051;-78
2023/02/03 09:51:35;;;;;;;2.67;2.42;;;;;;;;;;4940470;29;20864;-78
2023/02/03 09:54:06;;;;;;;2.55;2.30;;;;;;;;;;4943175;29;20027;-78
2023/02/03 09:56:35;;;;;;;4.18;2.08;;;;;;;;;;4959984;28;20390;-79
2023/02/03 09:59:02;;;;;;;3.45;2.60;;;;;;;;;;4936321;29;20494;-76
2023/02/03 10:01:38;;;;;;;4.68;2.65;;;;;;;;;;4957437;28;20038;-78
2023/02/03 10:04:29;;;;;;;3.63;2.70;;;;;;;;;;4939452;29;20035;-79
2023/02/03 10:07:14;;;;;;;3.35;2.40;;;;;;;;;;4953108;29;20030;-79
2023/02/03 10:09:48;;;;;;;7.28;2.58;;;;;;;;;;4959427;28;20386;-78
2023/02/03 10:12:52;;;;;;;5.70;3.70;;;;;;;;;;4958275;29;20406;-78
2023/02/03 10:15:51;;;;;;;3.97;2.75;;;;;;;;;;4941861;29;20090;-78
2023/02/03 10:18:25;;;;;;;5.32;2.80;;;;;;;;;;4915853;28;20042;-79
2023/02/03 10:20:54;;;;;;;4.72;2.92;;;;;;;;;;4960187;28;20035;-78
2023/02/03 10:23:28;;;;;;;3.57;2.07;;;;;;;;;;4955968;28;20030;-78
2023/02/03 10:26:08;;;;;;;3.28;2.33;;;;;;;;;;4955820;29;20044;-78
2023/02/03 10:28:39;;;;;;;5.78;2.15;;;;;;;;;;4940373;29;20371;-76
2023/02/03 10:31:17;;;;;;;5.63;2.97;;;;;;;;;;4951990;28;20043;-79
2023/02/03 10:33:42;;;;;;;4.22;2.00;;;;;;;;;;4953994;28;20043;-79
2023/02/03 10:36:22;;;;;;;4.93;2.42;;;;;;;;;;4945811;29;20421;-78
2023/02/03 10:38:50;;;;;;;2.28;2.08;;;;;;;;;;4959214;28;20019;-79
2023/02/03 10:41:18;;;;;;;4.47;1.92;;;;;;;;;;4935933;29;20040;-79
2023/02/03 10:43:51;;;;;;;3.75;2.50;;;;;;;;;;4951041;29;20437;-79
2023/02/03 10:46:20;;;;;;;3.38;1.60;;;;;;;;;;4935023;29;20023;-79
2023/02/03 10:48:48;;;;;;;3.58;1.98;;;;;;;;;;4956873;29;20026;-79
2023/02/03 10:51:25;;;;;;;4.07;2.83;;;;;;;;;;4938623;29;20493;-79
2023/02/03 10:53:52;;;;;;;3.50;2.47;;;;;;;;;;4940489;28;20020;-77
2023/02/03 10:56:40;;;;;;;3.20;2.33;;;;;;;;;;4957457;28;20035;-80
2023/02/03 10:59:08;;;;;;;6.93;2.58;;;;;;;;;;4930737;29;20119;-79
2023/02/03 11:01:50;;;;;;;2.00;1.63;;;;;;;;;;4951880;28;20039;-77
2023/02/03 11:04:25;;;;;;;1.58;1.33;;;;;;;;;;4959035;28;20031;-78
2023/02/03 11:07:00;;;;;;;3.03;2.00;;;;;;;;;;4956285;29;20030;-78
2023/02/03 11:09:36;;;;;;;3.78;2.30;;;;;;;;;;4944358;29;20019;-78
2023/02/03 11:12:17;;;;;;;1.95;1.65;;;;;;;;;;4942320;29;20022;-78
2023/02/03 11:14:46;;;;;;;2.65;1.52;;;;;;;;;;4965353;28;20031;-79
2023/02/03 11:17:26;;;;;;;2.85;1.75;;;;;;;;;;4944864;29;20437;-77
2023/02/03 11:19:54;;;;;;;3.35;1.48;;;;;;;;;;4955661;29;20038;-80
2023/02/03 11:22:32;;;;;;;2.88;2.08;;;;;;;;;;4943448;29;20031;-79
2023/02/03 11:25:03;;;;;;;1.70;1.60;;;;;;;;;;4954236;29;20033;-77
2023/02/03 11:27:32;;;;;;;2.65;1.75;;;;;;;;;;4960308;28;20425;-78
2023/02/03 11:30:15;;;;;;;2.72;1.90;;;;;;;;;;4940098;29;20023;-79
2023/02/03 11:32:43;;;;;;;3.05;1.92;;;;;;;;;;4955854;29;20163;-78
2023/02/03 11:35:20;;;;;;;1.52;1.42;;;;;;;;;;4956951;28;20030;-78
2023/02/03 11:37:48;;;;;;;2.22;1.73;;;;;;;;;;4956286;29;20097;-78
2023/02/03 11:40:13;;;;;;;2.83;1.70;;;;;;;;;;4956964;29;20058;-79
2023/02/03 11:42:43;;;;;;;3.92;1.77;;;;;;;;;;4942935;29;20094;-78
2023/02/03 11:45:27;;;;;;;1.40;1.30;;;;;;;;;;4959957;29;20032;-79
2023/02/03 11:48:19;;;;;;;1.60;1.38;;;;;;;;;;4945736;29;20118;-78
2023/02/03 11:51:05;;;;;;;2.97;2.10;;;;;;;;;;4931203;29;20149;-79
2023/02/03 11:54:05;;;;;;;5.13;2.17;;;;;;;;;;4943814;29;20035;-78
2023/02/03 11:56:53;;;;;;;2.30;1.65;;;;;;;;;;4961482;28;20042;-78
2023/02/03 11:59:25;;;;;;;1.90;1.73;;;;;;;;;;4943118;28;20039;-79
2023/02/03 12:02:12;;;;;;;2.78;2.08;;;;;;;;;;4940347;29;20106;-80
2023/02/03 12:05:09;;;;;;;1.50;1.40;;;;;;;;;;4940297;28;20046;-79
2023/02/03 12:07:56;;;;;;;2.70;1.80;;;;;;;;;;4959973;28;20031;-78
2023/02/03 12:10:55;;;;;;;3.03;1.67;;;;;;;;;;4956238;28;20086;-77
2023/02/03 12:13:29;;;;;;;2.40;1.80;;;;;;;;;;4938283;29;20031;-79
2023/02/03 12:16:05;;;;;;;3.72;1.92;;;;;;;;;;4937881;29;20118;-79
2023/02/03 12:18:40;;;;;;;4.45;2.28;;;;;;;;;;4944536;28;20031;-78
2023/02/03 12:21:31;;;;;;;4.57;1.80;;;;;;;;;;4937300;28;20031;-78
2023/02/03 12:24:19;;;;;;;3.97;2.30;;;;;;;;;;4958582;28;20110;-77
2023/02/03 12:27:02;;;;;;;2.47;1.70;;;;;;;;;;4963111;28;20566;-78
2023/02/03 12:29:43;;;;;;;2.05;1.88;;;;;;;;;;4961012;28;20046;-77
2023/02/03 12:32:39;;;;;;;2.58;1.60;;;;;;;;;;4941125;29;20071;-79
2023/02/03 12:35:26;;;;;;;3.33;2.30;;;;;;;;;;4962564;29;20041;-79
2023/02/03 12:38:07;;;;;;;2.17;1.98;;;;;;;;;;4952106;28;20027;-78
2023/02/03 12:40:36;;;;;;;7.13;2.70;;;;;;;;;;4960051;29;20019;-78
2023/02/03 12:43:41;;;;;;;6.95;4.03;;;;;;;;;;4964300;28;20370;-78
2023/02/03 12:46:18;;;;;;;3.05;2.17;;;;;;;;;;4944814;29;20050;-78
2023/02/03 12:49:17;;;;;;;2.67;2.03;;;;;;;;;;4962666;29;20042;-76
2023/02/03 12:51:53;;;;;;;3.33;2.45;;;;;;;;;;4962895;28;20038;-76
2023/02/03 12:54:48;;;;;;;2.75;1.90;;;;;;;;;;4968606;28;20031;-77
2023/02/03 12:57:25;;;;;;;6.63;3.63;;;;;;;;;;4975208;28;20187;-76
2023/02/03 13:00:09;;;;;;;8.52;3.85;;;;;;;;;;4973235;28;20094;-75
2023/02/03 13:02:51;;;;;;;7.90;3.70;;;;;;;;;;4974586;28;20032;-78
2023/02/03 13:06:22;;;;;;;3.95;2.42;;;;;;;;;;4959048;28;20043;-78
2023/02/03 13:08:57;;;;;;;3.13;1.88;;;;;;;;;;4880404;29;20032;-77
2023/02/03 13:11:50;;;;;;;2.50;2.13;;;;;;;;;;4864758;29;20040;-78
2023/02/03 13:14:45;;;;;;;32.22;7.50;;;;;;;;;;4930533;28;20039;-76
2023/02/03 13:17:14;;;;;;;6.28;2.83;;;;;;;;;;4935642;29;20044;-78
2023/02/03 13:19:45;;;;;;;3.92;2.50;;;;;;;;;;4949377;29;20397;-76
2023/02/03 13:22:16;;;;;;;3.40;1.77;;;;;;;;;;4965984;28;20121;-79
2023/02/03 13:25:10;;;;;;;3.65;2.20;;;;;;;;;;4945172;29;20027;-79
2023/02/03 13:28:15;;;;;;;5.18;2.30;;;;;;;;;;4948305;28;20093;-80
2023/02/03 13:31:19;;;;;;;5.15;2.95;;;;;;;;;;4864544;28;20041;-79
2023/02/03 13:34:09;;;;;;;6.68;2.65;;;;;;;;;;4947171;28;20058;-79
2023/02/03 13:36:37;;;;;;;4.63;2.10;;;;;;;;;;4954177;28;20597;-79
2023/02/03 13:39:22;;;;;;;3.70;2.53;;;;;;;;;;4933290;29;20035;-80
2023/02/03 13:41:55;;;;;;;5.90;3.38;;;;;;;;;;4958729;28;20022;-78
2023/02/03 13:44:27;;;;;;;5.65;3.13;;;;;;;;;;4963273;28;20106;-77
2023/02/03 13:46:57;;;;;;;4.45;3.10;;;;;;;;;;4935160;29;20041;-78
2023/02/03 13:49:35;;;;;;;7.18;4.05;;;;;;;;;;4943989;28;20087;-79
2023/02/03 13:52:02;;;;;;;5.07;3.08;;;;;;;;;;4957017;28;20083;-78
2023/02/03 13:54:30;;;;;;;5.20;3.08;;;;;;;;;;4942542;29;20036;-78
2023/02/03 13:57:01;;;;;;;3.88;2.50;;;;;;;;;;4958195;28;20027;-79
2023/02/03 13:59:44;;;;;;;4.97;2.60;;;;;;;;;;4960250;28;20103;-79
2023/02/03 14:02:18;;;;;;;2.58;2.10;;;;;;;;;;4943792;29;20032;-79
2023/02/03 14:04:44;;;;;;;5.50;2.85;;;;;;;;;;4941653;29;20035;-77
2023/02/03 14:07:39;;;;;;;3.70;2.60;;;;;;;;;;4941126;29;20033;-78
2023/02/03 14:10:13;;;;;;;4.72;2.63;;;;;;;;;;4956182;29;20067;-77
2023/02/03 14:12:53;;;;;;;4.18;2.25;;;;;;;;;;4944477;28;20034;-78
2023/02/03 14:15:30;;;;;;;6.72;3.65;;;;;;;;;;4943832;29;20059;-78
2023/02/03 14:17:57;;;;;;;11.23;3.55;;;;;;;;;;4943253;29;20058;-77
2023/02/03 14:20:30;;;;;;;6.18;3.03;;;;;;;;;;4950508;28;20027;-78
2023/02/03 14:23:05;;;;;;;9.10;3.10;;;;;;;;;;4964901;29;20038;-77
2023/02/03 14:25:50;;;;;;;4.90;2.95;;;;;;;;;;4964835;28;20039;-78
2023/02/03 14:28:22;;;;;;;3.80;2.47;;;;;;;;;;4956590;28;20030;-77
2023/02/03 14:31:03;;;;;;;4.85;2.80;;;;;;;;;;4969445;28;20046;-78
2023/02/03 14:33:47;;;;;;;4.45;2.75;;;;;;;;;;4962674;28;20027;-77
2023/02/03 14:36:36;;;;;;;4.18;2.03;;;;;;;;;;4964892;28;20030;-78
2023/02/03 14:39:17;;;;;;;3.63;2.30;;;;;;;;;;4968314;28;20177;-76
2023/02/03 14:41:52;;;;;;;6.63;2.80;;;;;;;;;;4959947;28;20298;-78
2023/02/03 14:44:42;;;;;;;4.43;2.28;;;;;;;;;;4965007;28;20489;-78
2023/02/03 14:47:58;;;;;;;6.22;2.45;;;;;;;;;;4945385;28;20058;-76
2023/02/03 14:51:10;;;;;;;15.10;5.43;;;;;;;;;;4955427;28;20392;-78
2023/02/03 14:54:05;;;;;;;6.93;4.07;;;;;;;;;;4935863;29;20192;-77
2023/02/03 14:57:15;;;;;;;8.48;4.00;;;;;;;;;;4948476;28;20111;-78
2023/02/03 14:59:57;;;;;;;3.40;1.85;;;;;;;;;;4952255;29;20023;-76
2023/02/03 15:02:26;;;;;;;4.47;3.20;;;;;;;;;;4932723;28;20047;-77
2023/02/03 15:05:13;;;;;;;2.90;2.40;;;;;;;;;;4948797;28;20442;-77
2023/02/03 15:07:45;;;;;;;4.85;2.88;;;;;;;;;;4947760;28;20022;-77
2023/02/03 15:10:28;;;;;;;4.43;2.83;;;;;;;;;;4935089;29;20039;-79
2023/02/03 15:12:57;;;;;;;4.45;2.78;;;;;;;;;;4947801;29;20125;-76
2023/02/03 15:15:28;;;;;;;3.25;2.42;;;;;;;;;;4950943;28;20030;-79